Time;durP1;ratioP1;P1;durP2;ratioP2;P2;SDS_P1;SDS_P2;PMS_P1;PMS_P2;Temp;Humidity;BMP_temperature;BMP_pressure;BME280_temperature;BME280_humidity;BME280_pressure;Samples;Min_cycle;Max_cycle;Signal;HPM_P1;HPM_P2
2022/11/20 08:19:37;;;;;;;38.13;24.77;;;;;;;;;;5093881;27;20786;-63
2022/11/20 08:22:02;;;;;;;37.53;24.83;;;;;;;;;;5101014;28;20623;-64
2022/11/20 08:24:27;;;;;;;34.00;26.60;;;;;;;;;;5099259;28;20181;-63
2022/11/20 08:26:52;;;;;;;36.00;26.30;;;;;;;;;;5092159;28;20184;-63
2022/11/20 08:29:18;;;;;;;35.80;26.83;;;;;;;;;;5075973;28;20248;-63
2022/11/20 08:31:43;;;;;;;36.70;27.80;;;;;;;;;;5098630;28;20173;-64
2022/11/20 08:34:08;;;;;;;40.17;30.43;;;;;;;;;;5088607;28;20187;-63
2022/11/20 08:36:34;;;;;;;39.17;27.97;;;;;;;;;;5091809;28;20627;-63
2022/11/20 08:38:59;;;;;;;36.00;28.83;;;;;;;;;;5078286;28;20200;-64
2022/11/20 08:41:25;;;;;;;38.23;27.60;;;;;;;;;;5076797;28;20715;-63
2022/11/20 08:43:51;;;;;;;37.53;28.00;;;;;;;;;;5087319;28;20188;-64
2022/11/20 08:46:17;;;;;;;36.17;29.10;;;;;;;;;;5073465;28;20195;-63
2022/11/20 08:48:42;;;;;;;36.23;28.83;;;;;;;;;;5076056;28;20992;-63
2022/11/20 08:51:07;;;;;;;38.53;30.07;;;;;;;;;;5072919;28;20210;-63
2022/11/20 08:53:32;;;;;;;34.43;27.07;;;;;;;;;;5076691;28;20182;-64
2022/11/20 08:55:58;;;;;;;37.17;28.03;;;;;;;;;;5079974;28;20189;-63
2022/11/20 08:58:23;;;;;;;36.43;27.63;;;;;;;;;;5090354;28;20204;-63
2022/11/20 09:00:48;;;;;;;36.20;27.40;;;;;;;;;;5084925;28;20256;-64
2022/11/20 09:03:13;;;;;;;33.40;26.00;;;;;;;;;;5083564;28;21177;-64
2022/11/20 09:05:39;;;;;;;35.47;26.90;;;;;;;;;;5069245;28;20187;-64
2022/11/20 09:08:04;;;;;;;33.20;26.87;;;;;;;;;;5080857;28;20657;-64
2022/11/20 09:10:29;;;;;;;34.07;26.40;;;;;;;;;;5086983;28;20233;-64
2022/11/20 09:12:55;;;;;;;34.13;26.03;;;;;;;;;;5070617;28;20322;-65
2022/11/20 09:15:20;;;;;;;32.60;25.83;;;;;;;;;;5068082;28;20183;-64
2022/11/20 09:17:51;;;;;;;30.77;25.87;;;;;;;;;;5066586;28;20335;-64
2022/11/20 09:20:17;;;;;;;32.73;25.20;;;;;;;;;;5068218;28;20186;-64
2022/11/20 09:22:42;;;;;;;33.37;25.30;;;;;;;;;;5075766;28;20608;-65
2022/11/20 09:25:07;;;;;;;29.70;25.77;;;;;;;;;;5068044;28;20177;-64
2022/11/20 09:27:32;;;;;;;32.07;25.20;;;;;;;;;;5071310;28;20194;-64
2022/11/20 09:29:58;;;;;;;27.70;23.17;;;;;;;;;;5071974;28;20213;-64
2022/11/20 09:32:23;;;;;;;29.63;23.27;;;;;;;;;;5059282;28;20172;-63
2022/11/20 09:34:48;;;;;;;27.97;22.50;;;;;;;;;;5064998;28;20262;-63
2022/11/20 09:37:13;;;;;;;26.40;22.60;;;;;;;;;;5059614;28;20205;-63
2022/11/20 09:39:38;;;;;;;31.43;23.63;;;;;;;;;;5063893;28;20662;-63
2022/11/20 09:42:14;;;;;;;33.47;23.07;;;;;;;;;;5053904;28;20187;-64
2022/11/20 09:44:49;;;;;;;27.63;24.00;;;;;;;;;;5052414;28;20193;-63
2022/11/20 09:47:19;;;;;;;26.93;22.60;;;;;;;;;;5063169;28;20653;-63
2022/11/20 09:49:59;;;;;;;32.97;23.83;;;;;;;;;;5059366;28;20609;-63
2022/11/20 09:52:50;;;;;;;25.37;21.80;;;;;;;;;;5057237;28;20659;-63
2022/11/20 09:55:16;;;;;;;24.60;21.70;;;;;;;;;;5068184;28;20900;-65
2022/11/20 09:57:43;;;;;;;23.13;20.17;;;;;;;;;;5058498;28;20718;-64
2022/11/20 10:00:12;;;;;;;23.97;20.60;;;;;;;;;;5051725;28;20707;-63
2022/11/20 10:02:40;;;;;;;23.47;20.87;;;;;;;;;;5067153;28;20600;-67
2022/11/20 10:05:15;;;;;;;24.73;20.03;;;;;;;;;;5054353;28;20957;-64
2022/11/20 10:07:47;;;;;;;25.00;20.17;;;;;;;;;;5073282;28;20627;-63
2022/11/20 10:10:21;;;;;;;21.80;18.07;;;;;;;;;;5064390;28;20655;-64
2022/11/20 10:13:10;;;;;;;21.87;18.83;;;;;;;;;;5051495;28;20605;-63
2022/11/20 10:15:55;;;;;;;22.97;18.30;;;;;;;;;;5063597;28;20626;-64
2022/11/20 10:18:26;;;;;;;21.30;17.80;;;;;;;;;;5061525;28;20678;-63
2022/11/20 10:21:07;;;;;;;19.80;17.53;;;;;;;;;;5060143;28;20703;-64
2022/11/20 10:23:45;;;;;;;20.67;17.60;;;;;;;;;;5067598;28;20704;-64
2022/11/20 10:26:20;;;;;;;20.67;18.50;;;;;;;;;;5055334;28;20625;-64
2022/11/20 10:28:52;;;;;;;22.70;19.13;;;;;;;;;;5063486;28;20605;-64
2022/11/20 10:31:26;;;;;;;21.23;18.47;;;;;;;;;;5063399;28;20641;-64
2022/11/20 10:33:53;;;;;;;22.07;19.17;;;;;;;;;;5065256;28;20755;-63
2022/11/20 10:36:20;;;;;;;23.17;19.10;;;;;;;;;;5072383;28;20586;-64
2022/11/20 10:38:51;;;;;;;19.37;17.33;;;;;;;;;;5054769;28;20650;-66
2022/11/20 10:41:26;;;;;;;20.27;18.13;;;;;;;;;;5062612;28;20617;-64
2022/11/20 10:43:57;;;;;;;23.70;18.57;;;;;;;;;;5067778;28;20615;-66
2022/11/20 10:46:23;;;;;;;23.60;19.40;;;;;;;;;;5065323;28;20613;-64
2022/11/20 10:48:49;;;;;;;19.90;17.67;;;;;;;;;;5065871;28;21281;-64
2022/11/20 10:51:17;;;;;;;20.97;17.73;;;;;;;;;;5055209;28;20975;-64
2022/11/20 10:54:00;;;;;;;19.33;17.23;;;;;;;;;;5060331;28;20702;-70
2022/11/20 10:56:34;;;;;;;20.63;18.13;;;;;;;;;;5066785;28;20622;-64
2022/11/20 10:58:59;;;;;;;19.20;17.10;;;;;;;;;;5061739;28;20655;-64
2022/11/20 11:01:26;;;;;;;17.88;15.98;;;;;;;;;;5065363;28;20604;-64
2022/11/20 11:03:52;;;;;;;18.17;16.27;;;;;;;;;;5070429;28;20184;-65
2022/11/20 11:06:20;;;;;;;18.63;16.83;;;;;;;;;;5063702;28;21162;-64
2022/11/20 11:08:47;;;;;;;17.43;15.70;;;;;;;;;;5053820;28;20241;-63
2022/11/20 11:11:12;;;;;;;18.33;16.43;;;;;;;;;;5055142;28;20614;-63
2022/11/20 11:13:37;;;;;;;18.17;16.38;;;;;;;;;;5053625;28;20640;-63
2022/11/20 11:16:02;;;;;;;19.45;16.27;;;;;;;;;;5061541;28;20184;-62
2022/11/20 11:18:29;;;;;;;16.67;14.93;;;;;;;;;;5061583;28;20270;-63
2022/11/20 11:20:56;;;;;;;16.57;14.53;;;;;;;;;;5072415;28;20286;-65
2022/11/20 11:23:40;;;;;;;17.43;15.63;;;;;;;;;;5057883;28;20751;-64
2022/11/20 11:26:07;;;;;;;16.40;14.77;;;;;;;;;;5070842;28;20618;-65
2022/11/20 11:28:32;;;;;;;16.37;14.63;;;;;;;;;;5076920;28;21173;-64
2022/11/20 11:30:57;;;;;;;18.90;17.07;;;;;;;;;;5059515;28;20628;-65
2022/11/20 11:33:30;;;;;;;17.30;15.60;;;;;;;;;;5064915;28;20195;-65
2022/11/20 11:36:00;;;;;;;17.50;15.77;;;;;;;;;;5061030;28;20191;-65
2022/11/20 11:38:31;;;;;;;17.00;15.40;;;;;;;;;;5062365;28;20651;-66
2022/11/20 11:40:56;;;;;;;17.87;16.17;;;;;;;;;;5068297;28;20932;-66
2022/11/20 11:46:19;;;;;;;18.47;15.60;;;;;;;;;;5063611;28;20551;-67
2022/11/20 11:48:54;;;;;;;17.13;15.37;;;;;;;;;;5063209;28;21044;-68
2022/11/20 11:51:20;;;;;;;17.10;15.50;;;;;;;;;;5053766;28;20687;-69
2022/11/20 11:53:45;;;;;;;15.40;13.90;;;;;;;;;;5070262;28;20612;-70
2022/11/20 11:56:12;;;;;;;17.17;15.57;;;;;;;;;;5071520;28;20183;-69
2022/11/20 11:58:45;;;;;;;15.70;14.10;;;;;;;;;;5060483;28;20633;-69
2022/11/20 12:01:29;;;;;;;17.33;15.63;;;;;;;;;;5064023;28;20610;-69
2022/11/20 12:04:13;;;;;;;13.20;12.00;;;;;;;;;;5060987;28;21233;-69
2022/11/20 12:06:39;;;;;;;11.47;10.47;;;;;;;;;;5063951;28;20975;-68
2022/11/20 12:09:07;;;;;;;11.27;10.30;;;;;;;;;;5072166;28;20609;-68
2022/11/20 12:11:33;;;;;;;11.53;10.40;;;;;;;;;;5075036;28;20618;-71
2022/11/20 12:14:03;;;;;;;9.50;8.68;;;;;;;;;;5068582;28;20663;-69
2022/11/20 12:16:30;;;;;;;11.93;10.73;;;;;;;;;;5069131;28;20204;-68
2022/11/20 12:18:55;;;;;;;12.57;11.37;;;;;;;;;;5064331;28;20658;-68
2022/11/20 12:21:20;;;;;;;12.27;11.07;;;;;;;;;;5077479;28;20983;-66
2022/11/20 12:23:55;;;;;;;12.10;10.90;;;;;;;;;;5065198;28;20283;-67
2022/11/20 12:26:30;;;;;;;13.27;11.93;;;;;;;;;;5069906;28;20554;-68
2022/11/20 12:29:04;;;;;;;12.87;11.60;;;;;;;;;;5060450;28;20629;-67
2022/11/20 12:31:41;;;;;;;12.20;11.03;;;;;;;;;;5053347;28;20606;-66
2022/11/20 12:34:12;;;;;;;12.60;11.30;;;;;;;;;;5048640;28;20591;-66
2022/11/20 12:36:46;;;;;;;12.50;11.30;;;;;;;;;;5050634;28;20661;-67
2022/11/20 12:39:16;;;;;;;13.00;11.40;;;;;;;;;;5053019;28;21233;-65
2022/11/20 12:45:09;;;;;;;14.13;12.73;;;;;;;;;;5051444;28;20615;-68
2022/11/20 12:47:44;;;;;;;14.70;13.20;;;;;;;;;;5057622;28;20687;-67
2022/11/20 12:50:24;;;;;;;14.00;12.70;;;;;;;;;;5054042;28;20651;-68
2022/11/20 12:52:57;;;;;;;14.03;12.63;;;;;;;;;;5047627;28;20709;-66
2022/11/20 12:55:35;;;;;;;15.80;14.27;;;;;;;;;;5050753;28;20594;-66
2022/11/20 12:58:05;;;;;;;14.27;12.77;;;;;;;;;;5048456;28;20645;-68
2022/11/20 13:00:33;;;;;;;13.57;12.30;;;;;;;;;;5066440;28;20631;-66
2022/11/20 13:03:21;;;;;;;14.80;13.37;;;;;;;;;;5069854;28;20582;-66
2022/11/20 13:05:46;;;;;;;14.10;12.67;;;;;;;;;;5054509;28;20710;-65
2022/11/20 13:08:22;;;;;;;14.38;12.98;;;;;;;;;;5068613;28;20698;-66
2022/11/20 13:10:47;;;;;;;15.87;14.37;;;;;;;;;;5069630;28;20199;-66
2022/11/20 13:13:16;;;;;;;14.68;13.15;;;;;;;;;;5066928;28;20643;-66
2022/11/20 13:15:42;;;;;;;13.73;12.43;;;;;;;;;;5066787;28;20188;-66
2022/11/20 13:18:09;;;;;;;14.67;13.23;;;;;;;;;;5070733;28;20757;-66
2022/11/20 13:20:35;;;;;;;14.03;12.73;;;;;;;;;;5062609;28;20174;-65
2022/11/20 13:23:00;;;;;;;13.57;12.30;;;;;;;;;;5056712;28;20706;-66
2022/11/20 13:25:29;;;;;;;14.97;13.57;;;;;;;;;;5050524;28;20681;-65
2022/11/20 13:27:55;;;;;;;13.87;12.60;;;;;;;;;;5052989;28;20586;-67
2022/11/20 13:30:25;;;;;;;13.50;12.20;;;;;;;;;;5057639;28;20619;-65
2022/11/20 13:32:54;;;;;;;14.83;12.97;;;;;;;;;;5071172;28;21166;-66
2022/11/20 13:35:24;;;;;;;14.40;13.03;;;;;;;;;;5052241;28;20621;-66
2022/11/20 13:37:59;;;;;;;16.50;13.50;;;;;;;;;;5058181;28;20639;-65
2022/11/20 13:40:24;;;;;;;13.63;12.43;;;;;;;;;;5053520;28;20716;-65
2022/11/20 13:43:01;;;;;;;15.93;14.43;;;;;;;;;;5059764;28;20714;-66
2022/11/20 13:45:30;;;;;;;12.80;11.50;;;;;;;;;;5053077;28;20173;-64
2022/11/20 13:47:56;;;;;;;13.37;11.97;;;;;;;;;;5056314;28;20617;-65
2022/11/20 13:50:31;;;;;;;13.70;12.30;;;;;;;;;;5061587;28;20663;-64
2022/11/20 13:53:07;;;;;;;14.83;13.43;;;;;;;;;;5073051;28;20192;-63
2022/11/20 13:55:37;;;;;;;13.63;12.43;;;;;;;;;;5071445;28;20629;-65
2022/11/20 13:58:12;;;;;;;13.27;11.90;;;;;;;;;;5064083;28;21042;-64
2022/11/20 14:00:43;;;;;;;11.70;10.60;;;;;;;;;;5070740;28;20651;-66
2022/11/20 14:03:12;;;;;;;10.83;9.83;;;;;;;;;;5066508;28;20774;-65
2022/11/20 14:05:48;;;;;;;11.33;10.33;;;;;;;;;;5065504;28;20613;-64
2022/11/20 14:08:17;;;;;;;10.23;9.33;;;;;;;;;;5071817;28;20695;-67
2022/11/20 14:10:42;;;;;;;11.50;10.43;;;;;;;;;;5067449;28;20649;-67
2022/11/20 14:13:17;;;;;;;11.50;10.33;;;;;;;;;;5061941;28;20668;-65
2022/11/20 14:15:42;;;;;;;10.70;9.70;;;;;;;;;;5057005;28;20189;-64
2022/11/20 14:18:12;;;;;;;11.20;10.07;;;;;;;;;;5063521;28;20672;-64
2022/11/20 14:20:37;;;;;;;9.50;8.70;;;;;;;;;;5062583;28;20176;-65
2022/11/20 14:23:04;;;;;;;9.83;8.93;;;;;;;;;;5055433;28;20986;-64
2022/11/20 14:25:30;;;;;;;10.40;9.40;;;;;;;;;;5068088;28;20191;-64
2022/11/20 14:27:57;;;;;;;10.40;9.40;;;;;;;;;;5059192;28;20686;-64
2022/11/20 14:30:24;;;;;;;9.80;8.90;;;;;;;;;;5059006;28;21172;-64
2022/11/20 14:32:50;;;;;;;10.50;9.60;;;;;;;;;;5067675;28;20651;-63
2022/11/20 14:35:26;;;;;;;9.57;8.77;;;;;;;;;;5063386;28;20607;-62
2022/11/20 14:37:51;;;;;;;10.70;9.70;;;;;;;;;;5058027;28;21212;-63
2022/11/20 14:40:22;;;;;;;9.63;8.80;;;;;;;;;;5071151;28;20618;-63
2022/11/20 14:42:48;;;;;;;10.70;9.73;;;;;;;;;;5068732;28;20189;-63
2022/11/20 14:45:13;;;;;;;11.97;10.80;;;;;;;;;;5065221;28;20629;-63
2022/11/20 14:47:39;;;;;;;10.10;9.20;;;;;;;;;;5052522;28;20546;-62
2022/11/20 14:50:12;;;;;;;10.50;9.50;;;;;;;;;;5051900;28;20263;-62
2022/11/20 14:52:37;;;;;;;11.13;10.07;;;;;;;;;;5068038;28;20186;-63
2022/11/20 14:55:02;;;;;;;12.47;11.33;;;;;;;;;;5057048;28;20984;-61
2022/11/20 14:57:34;;;;;;;11.60;10.60;;;;;;;;;;5063556;28;20183;-62
2022/11/20 15:00:03;;;;;;;12.70;11.40;;;;;;;;;;5051484;28;20266;-63
2022/11/20 15:02:29;;;;;;;11.83;10.70;;;;;;;;;;5054946;28;20653;-62
2022/11/20 15:04:59;;;;;;;11.17;10.13;;;;;;;;;;5070715;28;20649;-62
2022/11/20 15:07:24;;;;;;;12.60;11.33;;;;;;;;;;5070810;28;20198;-61
2022/11/20 15:09:59;;;;;;;11.03;10.03;;;;;;;;;;5063756;28;20648;-61
2022/11/20 15:12:24;;;;;;;12.70;11.40;;;;;;;;;;5071234;28;20256;-62
2022/11/20 15:14:49;;;;;;;12.93;11.63;;;;;;;;;;5051549;28;20610;-62
2022/11/20 15:17:14;;;;;;;12.70;11.50;;;;;;;;;;5066450;28;20276;-62
2022/11/20 15:19:39;;;;;;;12.53;11.33;;;;;;;;;;5050722;28;20199;-64
2022/11/20 15:22:12;;;;;;;12.67;11.43;;;;;;;;;;5060492;28;20263;-63
2022/11/20 15:24:37;;;;;;;12.60;11.37;;;;;;;;;;5066185;28;20253;-64
2022/11/20 15:27:02;;;;;;;12.70;11.40;;;;;;;;;;5053585;28;20633;-63
2022/11/20 15:29:28;;;;;;;13.30;11.63;;;;;;;;;;5066565;28;20184;-63
2022/11/20 15:31:54;;;;;;;12.53;11.20;;;;;;;;;;5062507;28;20245;-63
2022/11/20 15:34:19;;;;;;;14.10;12.77;;;;;;;;;;5055551;28;20283;-63
2022/11/20 15:36:44;;;;;;;12.50;11.30;;;;;;;;;;5067283;28;20712;-63
2022/11/20 15:39:09;;;;;;;13.63;12.23;;;;;;;;;;5058876;28;20212;-63
2022/11/20 15:41:35;;;;;;;13.03;11.73;;;;;;;;;;5056499;28;20218;-64
2022/11/20 15:44:01;;;;;;;14.13;11.83;;;;;;;;;;5064979;28;20180;-63
2022/11/20 15:46:27;;;;;;;13.63;12.10;;;;;;;;;;5064320;28;21294;-64
2022/11/20 15:48:56;;;;;;;14.50;11.73;;;;;;;;;;5053956;28;20176;-63
2022/11/20 15:51:26;;;;;;;13.33;11.83;;;;;;;;;;5067081;28;20630;-64
2022/11/20 15:53:51;;;;;;;13.30;11.90;;;;;;;;;;5056698;28;20614;-63
2022/11/20 15:56:16;;;;;;;15.88;14.27;;;;;;;;;;5062951;28;20628;-63
2022/11/20 15:58:41;;;;;;;17.10;15.13;;;;;;;;;;5063129;28;20202;-64
2022/11/20 16:01:10;;;;;;;15.47;13.43;;;;;;;;;;5065200;28;20621;-64
2022/11/20 16:03:35;;;;;;;16.63;14.27;;;;;;;;;;5070289;28;20175;-64
2022/11/20 16:06:01;;;;;;;16.50;14.50;;;;;;;;;;5068750;28;20593;-64
2022/11/20 16:08:26;;;;;;;15.15;13.55;;;;;;;;;;5052700;28;20990;-64
2022/11/20 16:10:51;;;;;;;13.30;11.23;;;;;;;;;;5052123;28;20172;-64
2022/11/20 16:16:04;;;;;;;14.10;12.60;;;;;;;;;;5064256;28;20554;-65
2022/11/20 16:18:29;;;;;;;16.80;15.00;;;;;;;;;;5065601;28;20789;-65
2022/11/20 16:20:55;;;;;;;16.03;14.00;;;;;;;;;;5050480;28;21135;-67
2022/11/20 16:23:20;;;;;;;14.93;13.07;;;;;;;;;;5051028;28;20178;-65
2022/11/20 16:25:46;;;;;;;15.10;13.50;;;;;;;;;;5063915;28;20676;-67
2022/11/20 16:28:11;;;;;;;17.73;14.40;;;;;;;;;;5076198;28;20175;-66
2022/11/20 16:30:37;;;;;;;16.50;14.70;;;;;;;;;;5071074;28;20190;-66
2022/11/20 16:33:02;;;;;;;15.73;14.03;;;;;;;;;;5067655;28;20241;-65
2022/11/20 16:35:28;;;;;;;18.50;14.87;;;;;;;;;;5073494;28;20253;-67
2022/11/20 16:37:54;;;;;;;15.10;13.50;;;;;;;;;;5063326;28;20847;-65
2022/11/20 16:40:19;;;;;;;19.20;15.83;;;;;;;;;;5069293;28;20171;-66
2022/11/20 16:42:44;;;;;;;17.43;15.47;;;;;;;;;;5079076;28;20207;-67
2022/11/20 16:45:09;;;;;;;18.57;15.03;;;;;;;;;;5067185;28;20180;-65
2022/11/20 16:47:35;;;;;;;18.93;16.10;;;;;;;;;;5066463;28;20180;-66
2022/11/20 16:50:00;;;;;;;18.30;15.63;;;;;;;;;;5067489;28;20183;-66
2022/11/20 16:52:26;;;;;;;19.53;17.43;;;;;;;;;;5080757;28;20219;-67
2022/11/20 16:54:51;;;;;;;16.57;14.80;;;;;;;;;;5088838;28;20182;-65
2022/11/20 16:57:16;;;;;;;17.40;15.57;;;;;;;;;;5089185;28;20186;-67
2022/11/20 16:59:42;;;;;;;17.43;15.60;;;;;;;;;;5066569;28;20196;-67
2022/11/20 17:02:08;;;;;;;19.73;16.23;;;;;;;;;;5051404;28;20755;-67
2022/11/20 17:04:33;;;;;;;19.73;17.73;;;;;;;;;;5060945;28;20180;-67
2022/11/20 17:06:59;;;;;;;21.17;18.80;;;;;;;;;;5081817;28;21111;-66
2022/11/20 17:09:24;;;;;;;18.40;16.50;;;;;;;;;;5084318;28;20206;-67
2022/11/20 17:11:49;;;;;;;22.87;19.20;;;;;;;;;;5087121;28;20238;-65
2022/11/20 17:14:15;;;;;;;19.60;17.60;;;;;;;;;;5089459;28;20261;-66
2022/11/20 17:16:40;;;;;;;19.90;17.33;;;;;;;;;;5068526;28;20196;-66
2022/11/20 17:19:05;;;;;;;20.00;17.90;;;;;;;;;;5085209;28;20222;-67
2022/11/20 17:21:31;;;;;;;21.60;19.40;;;;;;;;;;5080267;28;20646;-65
2022/11/20 17:23:59;;;;;;;24.20;19.10;;;;;;;;;;5072642;28;20606;-65
2022/11/20 17:26:27;;;;;;;21.20;18.67;;;;;;;;;;5088258;28;20620;-64
2022/11/20 17:28:53;;;;;;;21.90;18.20;;;;;;;;;;5073192;28;20605;-65
2022/11/20 17:31:18;;;;;;;20.23;18.13;;;;;;;;;;5071602;28;20705;-65
2022/11/20 17:33:44;;;;;;;22.87;20.33;;;;;;;;;;5084163;28;21238;-66
2022/11/20 17:36:10;;;;;;;21.47;19.27;;;;;;;;;;5080370;28;20713;-64
2022/11/20 17:38:35;;;;;;;22.03;19.60;;;;;;;;;;5082146;28;20637;-63
2022/11/20 17:41:05;;;;;;;22.00;19.60;;;;;;;;;;5068774;28;20257;-65
2022/11/20 17:43:31;;;;;;;22.53;19.60;;;;;;;;;;5057825;28;20182;-65
2022/11/20 17:45:56;;;;;;;22.70;19.10;;;;;;;;;;5053502;28;20640;-64
2022/11/20 17:48:21;;;;;;;24.27;20.43;;;;;;;;;;5067475;28;20616;-64
2022/11/20 17:50:46;;;;;;;25.73;20.53;;;;;;;;;;5070354;28;20690;-64
2022/11/20 17:53:12;;;;;;;24.67;21.40;;;;;;;;;;5071566;28;20239;-64
2022/11/20 17:58:20;;;;;;;23.10;19.80;;;;;;;;;;5064923;28;20641;-64
2022/11/20 18:00:45;;;;;;;21.17;18.90;;;;;;;;;;5076997;28;20645;-64
2022/11/20 18:03:11;;;;;;;22.07;19.27;;;;;;;;;;5061996;28;20257;-64
2022/11/20 18:05:36;;;;;;;22.60;18.80;;;;;;;;;;5062008;28;20910;-65
2022/11/20 18:08:01;;;;;;;23.20;20.70;;;;;;;;;;5068624;28;20180;-65
2022/11/20 18:10:28;;;;;;;21.90;19.13;;;;;;;;;;5057134;28;20181;-66
2022/11/20 18:12:53;;;;;;;26.30;22.13;;;;;;;;;;5060442;28;20204;-65
2022/11/20 18:15:18;;;;;;;23.60;20.23;;;;;;;;;;5053812;28;20629;-66
2022/11/20 18:17:43;;;;;;;26.60;21.67;;;;;;;;;;5070399;28;20236;-66
2022/11/20 18:20:09;;;;;;;23.93;21.30;;;;;;;;;;5087391;28;20188;-67
2022/11/20 18:22:34;;;;;;;25.50;21.73;;;;;;;;;;5088166;28;20698;-66
2022/11/20 18:24:59;;;;;;;38.85;30.42;;;;;;;;;;5065472;28;20179;-68
2022/11/20 18:27:25;;;;;;;31.03;24.53;;;;;;;;;;5053453;28;20190;-67
2022/11/20 18:29:53;;;;;;;26.90;22.40;;;;;;;;;;5066600;28;20219;-67
2022/11/20 18:32:18;;;;;;;29.47;21.93;;;;;;;;;;5059561;28;20238;-69
2022/11/20 18:34:44;;;;;;;29.30;21.67;;;;;;;;;;5055834;28;20622;-69
2022/11/20 18:37:09;;;;;;;29.17;23.77;;;;;;;;;;5048292;28;20662;-69
2022/11/20 18:39:35;;;;;;;25.43;22.47;;;;;;;;;;5060515;28;20237;-70
2022/11/20 18:44:50;;;;;;;29.13;24.10;;;;;;;;;;5061648;28;20190;-72
2022/11/20 18:47:37;;;;;;;27.80;21.80;;;;;;;;;;5080732;28;20640;-71
2022/11/20 18:50:04;;;;;;;29.23;23.80;;;;;;;;;;5068957;28;20645;-71
2022/11/20 18:52:43;;;;;;;30.10;24.47;;;;;;;;;;5054213;28;20614;-72
2022/11/20 18:55:09;;;;;;;34.07;23.60;;;;;;;;;;5069527;28;20668;-71
2022/11/20 18:57:34;;;;;;;30.17;22.90;;;;;;;;;;5068341;28;20609;-73
2022/11/20 18:59:59;;;;;;;31.00;24.50;;;;;;;;;;5070298;28;20344;-72
2022/11/20 19:02:25;;;;;;;36.80;30.17;;;;;;;;;;5067265;28;20179;-70
2022/11/20 19:04:50;;;;;;;35.40;27.07;;;;;;;;;;5071363;28;20257;-70
2022/11/20 19:07:15;;;;;;;29.37;25.07;;;;;;;;;;5079538;28;20639;-70
2022/11/20 19:09:41;;;;;;;34.03;27.50;;;;;;;;;;5070714;28;20607;-69
2022/11/20 19:12:07;;;;;;;32.13;26.80;;;;;;;;;;5076138;28;20208;-68
2022/11/20 19:14:32;;;;;;;31.00;24.40;;;;;;;;;;5061851;28;20717;-68
2022/11/20 19:16:58;;;;;;;25.03;22.27;;;;;;;;;;5070679;28;20174;-68
2022/11/20 19:19:23;;;;;;;28.45;25.00;;;;;;;;;;5069214;28;20691;-67
2022/11/20 19:21:48;;;;;;;28.73;25.53;;;;;;;;;;5058718;28;20187;-66
2022/11/20 19:24:13;;;;;;;27.00;23.57;;;;;;;;;;5056251;28;20231;-66
2022/11/20 19:26:39;;;;;;;27.03;23.40;;;;;;;;;;5066370;28;20175;-65
2022/11/20 19:29:04;;;;;;;30.47;23.87;;;;;;;;;;5047695;28;20178;-66
2022/11/20 19:31:30;;;;;;;27.43;22.80;;;;;;;;;;5051315;28;20187;-67
2022/11/20 19:33:57;;;;;;;28.67;25.03;;;;;;;;;;5051248;28;20175;-65
2022/11/20 19:36:26;;;;;;;26.87;23.23;;;;;;;;;;5050819;28;20575;-66
2022/11/20 19:38:52;;;;;;;28.33;23.50;;;;;;;;;;5058263;28;20650;-64
2022/11/20 19:41:19;;;;;;;31.53;25.50;;;;;;;;;;5066021;28;20600;-64
2022/11/20 19:43:48;;;;;;;30.73;25.50;;;;;;;;;;5067312;28;20611;-65
2022/11/20 19:46:13;;;;;;;27.97;24.73;;;;;;;;;;5055167;28;20697;-64
2022/11/20 19:48:39;;;;;;;34.63;26.43;;;;;;;;;;5062738;28;20760;-65
2022/11/20 19:51:12;;;;;;;30.33;24.13;;;;;;;;;;5061762;28;20189;-64
2022/11/20 19:53:37;;;;;;;27.80;24.13;;;;;;;;;;5063998;28;20185;-64
2022/11/20 19:56:02;;;;;;;29.70;24.92;;;;;;;;;;5061877;28;20586;-65
2022/11/20 19:58:27;;;;;;;32.23;24.80;;;;;;;;;;5051680;28;20198;-63
2022/11/20 20:00:53;;;;;;;30.30;26.00;;;;;;;;;;5062491;28;20624;-65
2022/11/20 20:03:18;;;;;;;32.73;26.13;;;;;;;;;;5063974;28;20195;-63
2022/11/20 20:05:43;;;;;;;27.40;22.63;;;;;;;;;;5059911;28;20231;-64
2022/11/20 20:08:08;;;;;;;25.63;22.30;;;;;;;;;;5060543;28;20196;-63
2022/11/20 20:10:34;;;;;;;27.20;23.17;;;;;;;;;;5055469;28;20194;-64
2022/11/20 20:12:59;;;;;;;26.97;24.07;;;;;;;;;;5053874;28;20199;-63
2022/11/20 20:15:24;;;;;;;29.67;23.90;;;;;;;;;;5063655;28;20190;-64
2022/11/20 20:17:53;;;;;;;30.93;24.20;;;;;;;;;;5062036;28;20249;-64
2022/11/20 20:20:18;;;;;;;25.97;22.93;;;;;;;;;;5047514;28;20668;-65
2022/11/20 20:22:44;;;;;;;26.70;23.47;;;;;;;;;;5054203;28;20578;-64
2022/11/20 20:25:09;;;;;;;26.73;23.23;;;;;;;;;;5065586;28;20746;-63
2022/11/20 20:27:35;;;;;;;29.30;23.20;;;;;;;;;;5060234;28;20169;-63
2022/11/20 20:30:04;;;;;;;29.07;23.53;;;;;;;;;;5062863;28;20210;-65
2022/11/20 20:32:29;;;;;;;28.63;24.00;;;;;;;;;;5057715;28;20679;-63
2022/11/20 20:34:54;;;;;;;27.47;21.10;;;;;;;;;;5056995;28;21176;-63
2022/11/20 20:37:20;;;;;;;27.03;22.73;;;;;;;;;;5078099;28;20175;-64
2022/11/20 20:39:45;;;;;;;30.57;22.13;;;;;;;;;;5057955;28;20559;-63
2022/11/20 20:42:10;;;;;;;25.33;21.90;;;;;;;;;;5060556;28;20206;-63
2022/11/20 20:47:19;;;;;;;27.70;22.50;;;;;;;;;;5059963;28;20195;-63
2022/11/20 20:49:44;;;;;;;28.90;22.57;;;;;;;;;;5054559;28;20613;-65
2022/11/20 20:52:09;;;;;;;29.80;23.03;;;;;;;;;;5065499;28;20227;-64
2022/11/20 20:54:35;;;;;;;31.10;24.47;;;;;;;;;;5055910;28;20179;-63
2022/11/20 20:57:00;;;;;;;32.87;24.80;;;;;;;;;;5059672;28;20190;-64
2022/11/20 20:59:25;;;;;;;29.33;24.60;;;;;;;;;;5066464;28;20194;-62
2022/11/20 21:01:50;;;;;;;28.80;23.80;;;;;;;;;;5063911;28;20171;-63
2022/11/20 21:04:15;;;;;;;28.05;23.65;;;;;;;;;;5064473;28;20183;-62
2022/11/20 21:06:40;;;;;;;32.93;24.23;;;;;;;;;;5055565;28;20748;-64
2022/11/20 21:09:05;;;;;;;30.50;23.67;;;;;;;;;;5066818;28;20214;-63
2022/11/20 21:11:31;;;;;;;31.77;24.93;;;;;;;;;;5062680;28;20180;-63
2022/11/20 21:13:56;;;;;;;33.73;25.30;;;;;;;;;;5073079;28;20265;-64
2022/11/20 21:16:21;;;;;;;30.83;25.53;;;;;;;;;;5059952;28;20549;-64
2022/11/20 21:18:46;;;;;;;31.47;24.10;;;;;;;;;;5074466;28;20215;-64
2022/11/20 21:23:57;;;;;;;31.40;24.67;;;;;;;;;;5058808;28;20311;-64
2022/11/20 21:26:22;;;;;;;35.60;24.87;;;;;;;;;;5063934;28;21094;-64
2022/11/20 21:28:48;;;;;;;31.63;24.80;;;;;;;;;;5088144;28;20190;-64
2022/11/20 21:31:21;;;;;;;36.40;26.53;;;;;;;;;;5068781;28;20329;-66
2022/11/20 21:33:47;;;;;;;34.33;25.17;;;;;;;;;;5066501;28;20679;-63
2022/11/20 21:36:13;;;;;;;38.37;26.00;;;;;;;;;;5080078;28;20638;-64
2022/11/20 21:38:39;;;;;;;31.20;24.80;;;;;;;;;;5071173;28;20652;-63
2022/11/20 21:41:05;;;;;;;32.43;25.93;;;;;;;;;;5070051;28;20565;-65
2022/11/20 21:43:31;;;;;;;29.50;24.50;;;;;;;;;;5061777;28;20228;-64
2022/11/20 21:46:03;;;;;;;33.33;25.33;;;;;;;;;;5054724;28;20606;-62
2022/11/20 21:48:30;;;;;;;32.50;25.03;;;;;;;;;;5055441;28;20632;-62
2022/11/20 21:50:55;;;;;;;33.80;25.70;;;;;;;;;;5061637;28;20628;-62
2022/11/20 21:53:20;;;;;;;33.13;26.23;;;;;;;;;;5065753;28;21159;-63
2022/11/20 21:55:51;;;;;;;30.20;24.50;;;;;;;;;;5072007;28;20249;-63
2022/11/20 21:58:17;;;;;;;30.53;23.90;;;;;;;;;;5072252;28;20729;-63
2022/11/20 22:00:42;;;;;;;34.47;26.40;;;;;;;;;;5070628;28;20668;-63
2022/11/20 22:03:07;;;;;;;35.80;26.10;;;;;;;;;;5065903;28;20737;-63
2022/11/20 22:05:32;;;;;;;34.43;25.13;;;;;;;;;;5061479;28;20179;-62
2022/11/20 22:07:57;;;;;;;32.57;25.23;;;;;;;;;;5059818;28;20511;-62
2022/11/20 22:10:22;;;;;;;30.40;23.70;;;;;;;;;;5059872;28;20174;-62
2022/11/20 22:12:48;;;;;;;29.87;24.63;;;;;;;;;;5069187;28;20236;-62
2022/11/20 22:15:13;;;;;;;35.13;25.47;;;;;;;;;;5068922;28;20186;-62
2022/11/20 22:20:42;;;;;;;32.30;24.43;;;;;;;;;;5020337;28;20324;-62
2022/11/20 22:23:07;;;;;;;33.10;25.23;;;;;;;;;;5021376;28;21177;-62
2022/11/20 22:25:32;;;;;;;34.88;26.15;;;;;;;;;;5040048;28;20233;-63
2022/11/20 22:27:57;;;;;;;32.80;25.63;;;;;;;;;;5054709;28;20512;-62
2022/11/20 22:30:22;;;;;;;32.03;25.03;;;;;;;;;;5072177;28;20171;-61
2022/11/20 22:32:48;;;;;;;37.00;25.27;;;;;;;;;;5071205;28;20677;-61
2022/11/20 22:35:13;;;;;;;31.70;25.53;;;;;;;;;;5070621;28;20599;-62
2022/11/20 22:37:39;;;;;;;34.57;28.10;;;;;;;;;;5066077;28;20602;-63
2022/11/20 22:40:04;;;;;;;32.17;25.60;;;;;;;;;;5056721;28;20650;-63
2022/11/20 22:42:29;;;;;;;36.40;28.30;;;;;;;;;;5071137;28;20255;-62
2022/11/20 22:44:54;;;;;;;37.28;27.25;;;;;;;;;;5071716;28;20175;-62
2022/11/20 22:47:19;;;;;;;31.73;25.37;;;;;;;;;;5071984;28;20168;-62
2022/11/20 22:49:45;;;;;;;37.30;27.00;;;;;;;;;;5071649;28;20668;-62
2022/11/20 22:52:10;;;;;;;34.85;26.77;;;;;;;;;;5069624;28;20183;-62
2022/11/20 22:54:35;;;;;;;35.50;27.57;;;;;;;;;;5071223;28;20186;-61
2022/11/20 22:57:00;;;;;;;39.00;27.10;;;;;;;;;;5055676;28;20180;-62
2022/11/20 22:59:25;;;;;;;37.90;28.67;;;;;;;;;;5061933;28;20280;-62
2022/11/20 23:01:50;;;;;;;39.17;29.63;;;;;;;;;;5067937;28;20167;-63